createdAt,value
2022-11-01T00:01:40.618Z,15.23
2022-11-01T00:06:42.296Z,15.13
2022-11-01T00:11:44.064Z,15.27
2022-11-01T00:16:47.100Z,15.28
2022-11-01T00:21:48.671Z,15.33
2022-11-01T00:26:50.229Z,15.22
2022-11-01T00:31:51.733Z,15.16
2022-11-01T00:36:53.217Z,15.22
2022-11-01T00:41:54.715Z,15.18
2022-11-01T00:46:56.212Z,15.10
2022-11-01T00:51:57.694Z,15.05
2022-11-01T00:56:59.199Z,15.13
2022-11-01T01:02:00.805Z,15.18
2022-11-01T01:07:02.505Z,15.20
2022-11-01T01:12:04.612Z,15.19
2022-11-01T01:17:06.221Z,15.19
2022-11-01T01:28:56.546Z,15.17
2022-11-01T01:33:58.546Z,15.23
2022-11-01T01:39:00.223Z,15.24
2022-11-01T01:44:03.509Z,15.29
2022-11-01T01:49:05.199Z,15.01
2022-11-01T01:54:06.839Z,14.74
2022-11-01T01:59:10.882Z,14.74
2022-11-01T02:04:20.110Z,14.79
2022-11-01T02:09:21.676Z,14.88
2022-11-01T02:14:25.896Z,14.81
2022-11-01T02:20:04.950Z,14.84
2022-11-01T02:25:30.479Z,14.97
2022-11-01T02:30:45.504Z,15.05
2022-11-01T02:36:08.548Z,15.18
2022-11-01T02:41:27.574Z,15.15
2022-11-01T02:47:01.654Z,15.13
2022-11-01T02:52:05.193Z,15.20
2022-11-01T02:57:17.474Z,15.05
2022-11-01T03:02:39.457Z,15.04
2022-11-01T03:07:44.774Z,15.01
2022-11-01T03:13:29.994Z,14.86
2022-11-01T03:18:36.691Z,14.97
2022-11-01T03:23:49.938Z,14.93
2022-11-01T03:28:57.099Z,14.94
2022-11-01T03:34:02.926Z,15.01
2022-11-01T03:39:13.587Z,14.90
2022-11-01T03:44:15.220Z,14.88
2022-11-01T03:49:18.184Z,14.80
2022-11-01T03:54:19.854Z,14.78
2022-11-01T03:59:23.267Z,14.84
2022-11-01T04:04:24.810Z,14.93
2022-11-01T04:09:26.369Z,14.80
2022-11-01T04:14:46.200Z,14.84
2022-11-01T04:20:06.357Z,14.81
2022-11-01T04:25:07.940Z,14.82
2022-11-01T04:30:09.844Z,14.95
2022-11-01T04:35:13.931Z,15.07
2022-11-01T04:40:15.531Z,15.06
2022-11-01T04:45:17.056Z,15.10
2022-11-01T04:50:20.189Z,15.17
2022-11-01T04:55:21.677Z,15.33
2022-11-01T05:00:23.476Z,15.57
2022-11-01T05:05:24.972Z,15.73
2022-11-01T05:10:26.705Z,15.90
2022-11-01T05:15:28.575Z,15.74
2022-11-01T05:20:33.408Z,15.48
2022-11-01T05:25:51.313Z,15.32
2022-11-01T05:30:52.950Z,15.41
2022-11-01T05:35:54.625Z,15.27
2022-11-01T05:40:56.153Z,15.07
2022-11-01T05:45:57.777Z,14.95
2022-11-01T05:50:59.324Z,14.78
2022-11-01T05:56:00.848Z,14.64
2022-11-01T06:01:05.652Z,14.30
2022-11-01T06:06:07.338Z,14.10
2022-11-01T06:11:09.780Z,14.13
2022-11-01T06:16:11.400Z,13.94
2022-11-01T06:21:13.048Z,13.88
2022-11-01T06:26:14.513Z,13.85
2022-11-01T06:31:16.251Z,13.60
2022-11-01T06:36:17.940Z,13.58
2022-11-01T06:41:19.631Z,13.51
2022-11-01T06:46:21.275Z,13.50
2022-11-01T06:51:22.811Z,13.29
2022-11-01T06:56:24.386Z,13.12
2022-11-01T07:01:26.656Z,13.14
2022-11-01T07:06:30.832Z,13.25
2022-11-01T07:11:37.442Z,13.27
2022-11-01T07:16:39.046Z,13.34
2022-11-01T07:21:40.711Z,13.31
2022-11-01T07:26:45.574Z,13.27
2022-11-01T07:31:47.696Z,13.42
2022-11-01T07:36:52.762Z,13.41
2022-11-01T07:41:54.558Z,13.47
2022-11-01T07:46:56.020Z,13.66
2022-11-01T07:52:02.541Z,14.01
2022-11-01T07:57:04.530Z,14.12
2022-11-01T08:02:08.037Z,14.08
2022-11-01T08:07:09.891Z,14.21
2022-11-01T08:12:11.522Z,14.31
2022-11-01T08:17:12.995Z,14.30
2022-11-01T08:22:14.498Z,14.21
2022-11-01T08:27:16.062Z,14.32
2022-11-01T08:32:22.976Z,14.31
2022-11-01T08:37:24.502Z,14.46
2022-11-01T08:42:25.999Z,14.17
2022-11-01T08:47:27.555Z,14.41
2022-11-01T08:52:29.094Z,14.08
2022-11-01T08:57:31.159Z,14.21
2022-11-01T09:02:33.721Z,14.43
2022-11-01T09:07:36.309Z,14.04
2022-11-01T09:17:42.305Z,14.12
2022-11-01T09:22:43.802Z,13.93
2022-11-01T09:27:45.437Z,13.93
2022-11-01T09:32:47.041Z,14.12
2022-11-01T09:37:48.699Z,14.18
2022-11-01T09:42:50.986Z,14.04
2022-11-01T09:47:54.523Z,14.18
2022-11-01T09:52:57.269Z,14.46
2022-11-01T09:58:11.331Z,14.90
2022-11-01T10:03:37.457Z,14.99
2022-11-01T10:09:01.705Z,15.35
2022-11-01T10:14:31.027Z,15.44
2022-11-01T10:19:35.316Z,15.41
2022-11-01T10:24:52.601Z,15.58
2022-11-01T10:30:04.215Z,16.10
2022-11-01T10:35:14.848Z,16.06
2022-11-01T10:40:23.542Z,15.57
2022-11-01T10:45:25.455Z,15.86
2022-11-01T10:50:30.121Z,15.80
2022-11-01T10:55:50.731Z,15.91
2022-11-01T11:00:53.308Z,16.09
2022-11-01T11:05:58.107Z,16.23
2022-11-01T11:11:04.857Z,15.94
2022-11-01T11:16:14.551Z,16.16
2022-11-01T11:21:16.140Z,16.12
2022-11-01T11:26:20.088Z,15.91
2022-11-01T11:31:28.446Z,16.11
2022-11-01T11:36:33.856Z,16.19
2022-11-01T11:41:36.934Z,15.97
2022-11-01T11:46:50.051Z,16.20
2022-11-01T11:51:53.179Z,16.14
2022-11-01T11:57:11.512Z,16.10
2022-11-01T12:02:27.373Z,16.72
2022-11-01T12:07:45.933Z,16.68
2022-11-01T12:12:52.248Z,16.73
2022-11-01T12:17:54.201Z,16.53
2022-11-01T12:23:26.794Z,16.35
2022-11-01T12:28:37.733Z,16.32
2022-11-01T12:34:06.402Z,16.63
2022-11-01T12:39:24.111Z,16.56
2022-11-01T12:44:41.544Z,16.79
2022-11-01T12:49:49.065Z,16.24
2022-11-01T12:55:20.756Z,16.29
2022-11-01T13:00:26.792Z,16.54
2022-11-01T13:06:08.793Z,16.49
2022-11-01T13:11:42.575Z,16.22
2022-11-01T13:17:18.920Z,16.29
2022-11-01T13:23:08.887Z,16.18
2022-11-01T13:28:18.154Z,16.46
2022-11-01T13:33:38.757Z,16.16
2022-11-01T13:38:57.251Z,16.55
2022-11-01T13:44:06.188Z,16.24
2022-11-01T13:49:37.191Z,16.07
2022-11-01T13:54:55.381Z,15.76
2022-11-01T13:59:59.952Z,15.95
2022-11-01T14:05:09.977Z,15.89
2022-11-01T14:10:31.400Z,15.86
2022-11-01T14:15:58.350Z,15.75
2022-11-01T14:21:29.034Z,15.93
2022-11-01T14:26:37.856Z,15.58
2022-11-01T14:31:40.606Z,15.47
2022-11-01T14:36:44.641Z,15.65
2022-11-01T14:41:52.376Z,15.37
2022-11-01T14:46:59.418Z,15.35
2022-11-01T14:52:31.932Z,15.27
2022-11-01T14:57:34.978Z,15.18
2022-11-01T15:02:36.641Z,15.03
2022-11-01T15:07:40.351Z,15.01
2022-11-01T15:12:50.196Z,14.88
2022-11-01T15:17:56.448Z,14.81
2022-11-01T15:22:59.108Z,14.56
2022-11-01T15:28:00.939Z,14.57
2022-11-01T15:33:34.924Z,14.48
2022-11-01T15:38:52.421Z,14.47
2022-11-01T15:43:55.566Z,14.30
2022-11-01T15:49:00.472Z,14.10
2022-11-01T15:54:29.369Z,14.09
2022-11-01T15:59:42.196Z,13.92
2022-11-01T16:04:46.845Z,13.49
2022-11-01T16:09:53.300Z,13.53
2022-11-01T16:14:58.935Z,13.51
2022-11-01T16:20:05.255Z,13.40
2022-11-01T16:25:06.674Z,13.39
2022-11-01T16:30:42.880Z,13.39
2022-11-01T16:35:45.907Z,13.13
2022-11-01T16:40:49.998Z,13.21
2022-11-01T16:45:52.075Z,13.20
2022-11-01T16:50:54.814Z,13.11
2022-11-01T16:56:35.485Z,13.07
2022-11-01T17:01:38.007Z,12.92
2022-11-01T17:06:39.784Z,12.50
2022-11-01T17:11:46.405Z,12.59
2022-11-01T17:16:52.096Z,12.65
2022-11-01T17:21:54.640Z,12.61
2022-11-01T17:27:00.138Z,12.44
2022-11-01T17:32:02.897Z,12.58
2022-11-01T17:37:05.121Z,12.45
2022-11-01T17:42:06.653Z,12.72
2022-11-01T17:47:14.180Z,12.70
2022-11-01T17:52:15.652Z,12.75
2022-11-01T17:57:17.171Z,12.66
2022-11-01T18:02:19.139Z,12.84
2022-11-01T18:07:21.336Z,12.74
2022-11-01T18:12:49.405Z,12.63
2022-11-01T18:18:20.444Z,12.62
2022-11-01T18:23:22.932Z,12.66
2022-11-01T18:35:32.001Z,12.59
2022-11-01T18:41:46.315Z,12.35
2022-11-01T18:47:00.460Z,12.43
2022-11-01T18:52:01.921Z,12.38
2022-11-01T18:57:13.791Z,12.45
2022-11-01T19:08:48.475Z,12.43
2022-11-01T19:13:50.683Z,12.35
2022-11-01T19:18:52.510Z,12.37
2022-11-01T19:23:55.818Z,12.48
2022-11-01T19:28:57.379Z,12.41
2022-11-01T19:34:05.278Z,12.56
2022-11-01T19:39:23.406Z,12.47
2022-11-01T19:44:26.877Z,12.47
2022-11-01T19:49:30.836Z,12.38
2022-11-01T19:55:38.176Z,12.29
2022-11-01T20:00:39.704Z,12.27
2022-11-01T20:05:41.220Z,12.29
2022-11-01T20:17:42.400Z,12.25
2022-11-01T20:22:54.524Z,12.19
2022-11-01T20:28:02.049Z,12.05
2022-11-01T20:33:04.321Z,12.09
2022-11-01T20:38:06.089Z,12.06
2022-11-01T20:43:08.164Z,12.15
2022-11-01T20:48:09.695Z,11.89
2022-11-01T20:53:11.750Z,11.97
2022-11-01T20:58:14.146Z,11.91
2022-11-01T21:03:17.663Z,11.76
2022-11-01T21:08:26.204Z,11.77
2022-11-01T21:13:41.743Z,11.74
2022-11-01T21:18:45.764Z,11.66
2022-11-01T21:23:47.937Z,11.68
2022-11-01T21:28:54.752Z,11.80
2022-11-01T21:33:59.413Z,11.81
2022-11-01T21:39:09.853Z,11.93
2022-11-01T21:44:15.204Z,12.00
2022-11-01T21:49:25.512Z,12.21
2022-11-01T21:54:29.392Z,12.33
2022-11-01T21:59:31.748Z,12.49
2022-11-01T22:04:33.648Z,12.49
2022-11-01T22:09:36.031Z,12.81
2022-11-01T22:14:37.563Z,12.68
2022-11-01T22:19:39.057Z,12.78
2022-11-01T22:25:08.692Z,12.92
2022-11-01T22:30:11.021Z,13.05
2022-11-01T22:35:12.549Z,13.09
2022-11-01T22:40:14.845Z,13.10
2022-11-01T22:45:17.887Z,13.09
2022-11-01T22:50:26.473Z,13.19
2022-11-01T22:55:30.132Z,13.23
2022-11-01T23:00:37.214Z,13.19
2022-11-01T23:05:38.769Z,13.25
2022-11-01T23:10:49.897Z,13.21
2022-11-01T23:15:52.173Z,13.19
2022-11-01T23:20:59.545Z,13.18
2022-11-01T23:26:04.941Z,13.18
2022-11-01T23:31:06.663Z,13.07
2022-11-01T23:36:15.853Z,13.21
2022-11-01T23:41:27.436Z,13.08
2022-11-01T23:46:29.188Z,13.12
2022-11-01T23:51:31.437Z,13.07
2022-11-01T23:56:33.039Z,13.00
